Time;durP1;ratioP1;P1;durP2;ratioP2;P2;SDS_P1;SDS_P2;PMS_P1;PMS_P2;Temp;Humidity;BMP_temperature;BMP_pressure;BME280_temperature;BME280_humidity;BME280_pressure;Samples;Min_cycle;Max_cycle;Signal;HPM_P1;HPM_P2
2022/05/24 00:00:35;;;;;;;17.77;14.85;;;14.90;99.90;;;;;;5032191;28;20038;-81
2022/05/24 00:03:01;;;;;;;14.43;12.93;;;14.90;99.90;;;;;;5049011;28;20028;-80
2022/05/24 00:05:30;;;;;;;14.52;12.68;;;14.90;99.90;;;;;;5013887;28;20725;-80
2022/05/24 00:07:57;;;;;;;18.23;14.77;;;14.90;99.90;;;;;;5045779;28;20525;-80
2022/05/24 00:10:29;;;;;;;15.13;12.38;;;14.90;99.90;;;;;;5026412;28;20476;-80
2022/05/24 00:12:56;;;;;;;14.57;13.10;;;14.80;99.90;;;;;;5010911;28;20379;-80
2022/05/24 00:15:27;;;;;;;15.88;12.60;;;14.80;99.90;;;;;;5032103;28;20028;-80
2022/05/24 00:18:07;;;;;;;15.40;13.75;;;14.80;99.90;;;;;;5027663;28;20037;-80
2022/05/24 00:20:37;;;;;;;15.40;12.90;;;14.90;99.90;;;;;;5018972;28;20044;-80
2022/05/24 00:23:05;;;;;;;15.85;14.15;;;14.90;99.90;;;;;;5027654;28;20016;-81
2022/05/24 00:25:34;;;;;;;15.20;13.70;;;14.90;99.90;;;;;;5018867;28;20021;-80
2022/05/24 00:28:01;;;;;;;14.80;13.25;;;14.90;99.90;;;;;;5030335;28;20380;-80
2022/05/24 00:30:28;;;;;;;17.92;13.93;;;14.90;99.90;;;;;;5019274;28;20029;-81
2022/05/24 00:32:54;;;;;;;15.13;13.15;;;14.90;99.90;;;;;;5033582;28;20063;-81
2022/05/24 00:35:21;;;;;;;18.73;16.75;;;14.90;99.90;;;;;;5018124;28;20495;-80
2022/05/24 00:37:48;;;;;;;19.98;16.65;;;14.90;99.90;;;;;;5028509;28;20387;-80
2022/05/24 00:40:44;;;;;;;24.95;21.50;;;14.90;99.90;;;;;;5020849;28;20044;-80
2022/05/24 00:43:32;;;;;;;19.27;17.23;;;14.90;99.90;;;;;;5049167;28;20369;-80
2022/05/24 00:46:06;;;;;;;18.73;15.48;;;14.90;99.90;;;;;;5045930;28;20047;-80
2022/05/24 00:48:37;;;;;;;21.05;17.98;;;14.90;99.90;;;;;;5028139;28;20390;-80
2022/05/24 00:51:07;;;;;;;19.70;17.70;;;14.90;99.90;;;;;;5016833;28;20040;-80
2022/05/24 00:53:39;;;;;;;20.38;17.73;;;14.90;99.90;;;;;;5035429;28;20040;-81
2022/05/24 00:56:07;;;;;;;28.10;22.33;;;14.90;99.90;;;;;;5040853;28;20033;-81
2022/05/24 00:58:59;;;;;;;21.45;18.23;;;14.90;99.90;;;;;;5032363;28;20041;-80
2022/05/24 01:01:42;;;;;;;23.45;20.95;;;14.90;99.90;;;;;;5049063;28;20402;-80
2022/05/24 01:04:13;;;;;;;28.20;24.13;;;14.90;99.90;;;;;;5064460;28;20044;-80
2022/05/24 01:06:43;;;;;;;27.10;23.80;;;14.90;99.90;;;;;;5013928;28;20048;-80
2022/05/24 01:09:26;;;;;;;23.88;20.83;;;14.90;99.90;;;;;;5036725;28;20031;-81
2022/05/24 01:11:58;;;;;;;25.00;21.65;;;14.90;99.90;;;;;;5056492;28;20506;-80
2022/05/24 01:14:26;;;;;;;28.75;23.80;;;14.90;99.90;;;;;;5053047;28;20028;-80
2022/05/24 01:16:54;;;;;;;25.73;22.85;;;14.90;99.90;;;;;;5047846;28;22112;-80
2022/05/24 01:19:26;;;;;;;26.60;23.55;;;14.90;99.90;;;;;;5019367;28;20057;-80
2022/05/24 01:21:57;;;;;;;26.38;23.52;;;14.90;99.90;;;;;;5048615;28;20369;-80
2022/05/24 01:24:38;;;;;;;26.13;22.15;;;14.80;99.90;;;;;;5050318;28;20025;-80
2022/05/24 01:27:06;;;;;;;32.38;24.25;;;14.80;99.90;;;;;;5062536;28;20360;-80
2022/05/24 01:29:32;;;;;;;29.67;24.65;;;14.80;99.90;;;;;;5014786;28;20041;-80
2022/05/24 01:37:30;;;;;;;23.10;20.08;;;14.70;99.90;;;;;;5032271;28;20021;-80
2022/05/24 01:39:59;;;;;;;31.90;23.38;;;14.60;99.90;;;;;;5046335;28;20025;-80
2022/05/24 01:42:27;;;;;;;26.10;20.33;;;14.60;99.90;;;;;;5015676;28;20029;-80
2022/05/24 01:45:09;;;;;;;30.02;23.08;;;14.50;99.90;;;;;;5032424;28;20041;-80
2022/05/24 01:47:42;;;;;;;25.40;19.95;;;14.50;99.90;;;;;;5044887;28;20028;-80
2022/05/24 01:50:13;;;;;;;30.10;26.20;;;14.50;99.90;;;;;;5046786;28;20035;-81
2022/05/24 01:52:46;;;;;;;33.42;26.58;;;14.40;99.90;;;;;;5030403;28;20031;-80
2022/05/24 01:55:29;;;;;;;31.30;26.33;;;14.40;99.90;;;;;;5059950;28;20020;-80
2022/05/24 01:58:00;;;;;;;31.33;27.88;;;14.30;99.90;;;;;;5044013;28;20028;-80
2022/05/24 02:00:27;;;;;;;37.25;32.53;;;14.30;99.90;;;;;;5046977;28;20024;-80
2022/05/24 02:02:56;;;;;;;33.85;29.40;;;14.30;99.90;;;;;;5031729;28;20060;-80
2022/05/24 02:05:36;;;;;;;36.72;29.83;;;14.30;99.90;;;;;;5001685;28;20550;-80
2022/05/24 02:08:07;;;;;;;26.48;22.77;;;14.30;99.90;;;;;;5008895;28;20923;-80
2022/05/24 02:10:44;;;;;;;31.60;26.65;;;14.30;99.90;;;;;;5031179;28;20043;-80
2022/05/24 02:13:14;;;;;;;27.95;24.55;;;14.30;99.90;;;;;;5048493;28;20044;-81
2022/05/24 02:15:45;;;;;;;30.10;25.92;;;14.30;99.90;;;;;;5034071;28;20035;-81
2022/05/24 02:18:15;;;;;;;24.00;21.42;;;14.20;99.90;;;;;;5015037;28;20020;-79
2022/05/24 02:20:45;;;;;;;29.58;22.95;;;14.20;99.90;;;;;;5024319;28;20044;-82
2022/05/24 02:23:15;;;;;;;26.70;21.00;;;14.20;99.90;;;;;;5049284;28;20032;-82
2022/05/24 02:25:52;;;;;;;24.33;20.30;;;14.20;99.90;;;;;;5048042;28;20506;-84
2022/05/24 02:28:23;;;;;;;20.92;18.30;;;14.20;99.90;;;;;;5036489;28;20044;-82
2022/05/24 02:30:52;;;;;;;23.92;18.50;;;14.20;99.90;;;;;;5029159;28;20028;-83
2022/05/24 02:33:20;;;;;;;22.23;17.55;;;14.20;99.90;;;;;;5030162;28;20037;-82
2022/05/24 02:35:50;;;;;;;22.58;17.63;;;14.20;99.90;;;;;;5030475;28;20035;-82
2022/05/24 02:38:17;;;;;;;20.90;16.00;;;14.20;99.90;;;;;;5015380;28;20025;-82
2022/05/24 02:43:37;;;;;;;17.52;13.15;;;14.10;99.90;;;;;;5051472;28;20028;-81
2022/05/24 02:46:06;;;;;;;19.42;14.55;;;14.00;99.90;;;;;;5054349;28;20044;-82
2022/05/24 02:48:33;;;;;;;20.90;14.13;;;14.10;99.90;;;;;;5084026;28;20028;-82
2022/05/24 02:51:01;;;;;;;18.50;12.77;;;14.00;99.90;;;;;;5041577;28;20047;-81
2022/05/24 02:53:33;;;;;;;15.60;12.25;;;13.90;99.90;;;;;;5085334;28;20036;-81
2022/05/24 02:56:04;;;;;;;16.92;11.63;;;13.80;99.90;;;;;;5031193;28;20052;-81
2022/05/24 02:58:35;;;;;;;19.20;11.23;;;13.70;99.90;;;;;;5045302;28;20028;-84
2022/05/24 03:01:04;;;;;;;11.18;8.45;;;13.70;99.90;;;;;;5056639;28;20522;-82
2022/05/24 03:03:31;;;;;;;14.25;8.90;;;13.60;99.90;;;;;;5034623;28;20066;-82
2022/05/24 03:05:58;;;;;;;13.23;8.65;;;13.60;99.90;;;;;;5036176;28;20040;-82
2022/05/24 03:11:21;;;;;;;12.05;8.10;;;13.40;99.90;;;;;;5066744;28;20052;-82
2022/05/24 03:16:38;;;;;;;19.33;8.55;;;13.40;99.90;;;;;;5046765;28;20040;-81
2022/05/24 03:19:05;;;;;;;12.02;7.82;;;13.40;99.90;;;;;;5032756;28;20037;-82
2022/05/24 03:21:31;;;;;;;13.88;8.57;;;13.40;99.90;;;;;;5045944;28;20483;-81
2022/05/24 03:23:59;;;;;;;12.48;7.22;;;13.40;99.90;;;;;;5045165;28;20039;-81
2022/05/24 03:26:26;;;;;;;16.77;8.85;;;13.40;99.90;;;;;;5043424;28;20076;-80
2022/05/24 03:28:58;;;;;;;11.63;7.85;;;13.40;99.90;;;;;;5016623;28;20040;-82
2022/05/24 03:31:25;;;;;;;17.63;7.80;;;13.40;99.90;;;;;;4981557;28;20025;-81
2022/05/24 03:33:52;;;;;;;11.07;5.90;;;13.40;99.90;;;;;;5033736;28;20024;-81
2022/05/24 03:36:22;;;;;;;10.60;6.22;;;13.40;99.90;;;;;;5027748;28;20087;-79
2022/05/24 03:38:51;;;;;;;13.18;5.38;;;13.40;99.90;;;;;;5042852;28;20040;-81
2022/05/24 03:41:17;;;;;;;7.57;4.82;;;13.40;99.90;;;;;;5043305;28;20037;-78
2022/05/24 03:43:44;;;;;;;9.35;4.97;;;13.40;99.90;;;;;;5028934;28;20476;-82
2022/05/24 03:46:11;;;;;;;10.85;6.10;;;13.50;99.90;;;;;;4999896;28;20040;-84
2022/05/24 03:48:39;;;;;;;13.73;5.15;;;13.50;99.90;;;;;;5018244;28;20036;-83
2022/05/24 03:51:09;;;;;;;11.02;4.85;;;13.50;99.90;;;;;;5063555;28;20031;-84
2022/05/24 03:53:39;;;;;;;11.00;5.07;;;13.50;99.90;;;;;;5047056;28;20047;-84
2022/05/24 03:56:15;;;;;;;7.50;4.07;;;13.40;99.90;;;;;;5051005;28;22534;-84
2022/05/24 03:58:42;;;;;;;8.35;4.57;;;13.50;99.90;;;;;;5047427;28;20037;-83
2022/05/24 04:01:10;;;;;;;8.63;4.60;;;13.50;99.90;;;;;;5036502;28;20495;-84
2022/05/24 04:03:37;;;;;;;10.88;4.40;;;13.50;99.90;;;;;;5048469;28;20500;-83
2022/05/24 04:06:07;;;;;;;8.68;4.68;;;13.50;99.90;;;;;;5035200;28;20404;-83
2022/05/24 04:08:36;;;;;;;7.93;3.65;;;13.50;99.90;;;;;;5018848;28;20032;-83
2022/05/24 04:11:10;;;;;;;9.27;4.38;;;13.50;99.90;;;;;;5020507;28;20036;-84
2022/05/24 04:13:45;;;;;;;10.02;3.97;;;13.50;99.90;;;;;;5042237;28;20047;-84
2022/05/24 04:16:12;;;;;;;6.85;4.03;;;13.50;99.90;;;;;;5033273;28;20032;-83
2022/05/24 04:18:39;;;;;;;14.23;5.18;;;13.60;99.90;;;;;;5031485;28;20028;-83
2022/05/24 04:21:05;;;;;;;9.48;5.25;;;13.60;99.90;;;;;;5050491;28;20030;-83
2022/05/24 04:23:37;;;;;;;7.35;4.55;;;13.60;99.90;;;;;;5032555;28;20483;-83
2022/05/24 04:26:07;;;;;;;9.38;4.63;;;13.60;99.90;;;;;;5017176;28;20048;-83
2022/05/24 04:28:41;;;;;;;8.23;4.40;;;13.50;99.90;;;;;;5035089;28;20387;-83
2022/05/24 04:31:10;;;;;;;8.65;5.10;;;13.60;99.90;;;;;;5015185;28;20028;-83
2022/05/24 04:33:37;;;;;;;9.25;4.93;;;13.60;99.90;;;;;;5036388;28;20040;-83
2022/05/24 04:36:07;;;;;;;11.85;5.72;;;13.50;99.90;;;;;;5046978;28;20503;-82
2022/05/24 04:38:37;;;;;;;7.78;4.75;;;13.60;99.90;;;;;;5047247;28;20062;-79
2022/05/24 04:43:52;;;;;;;10.98;5.45;;;13.60;99.90;;;;;;5065271;28;20468;-80
2022/05/24 04:47:06;;;;;;;12.13;6.25;;;13.60;99.90;;;;;;5063424;28;20031;-82
2022/05/24 04:49:22;;;;;;;12.50;5.85;;;13.60;99.90;;;;;;5048204;28;20040;-82
2022/05/24 04:51:55;;;;;;;10.27;6.15;;;13.70;99.90;;;;;;5063818;28;20036;-81
2022/05/24 04:54:37;;;;;;;13.32;6.70;;;13.70;99.90;;;;;;5036150;28;20044;-81
2022/05/24 04:57:20;;;;;;;8.43;4.88;;;13.70;99.90;;;;;;5031173;28;20487;-82
2022/05/24 04:59:48;;;;;;;9.07;5.80;;;13.70;99.90;;;;;;5002123;28;20146;-83
2022/05/24 05:02:22;;;;;;;11.82;5.22;;;13.70;99.90;;;;;;5035397;28;20107;-83
2022/05/24 05:04:48;;;;;;;10.68;7.00;;;13.70;99.90;;;;;;5051274;28;20460;-83
2022/05/24 05:07:36;;;;;;;11.82;6.55;;;13.80;99.90;;;;;;5045139;28;20035;-84
2022/05/24 05:10:09;;;;;;;13.32;6.63;;;13.70;99.90;;;;;;5066399;28;20041;-83
2022/05/24 05:12:39;;;;;;;11.93;7.07;;;13.80;99.90;;;;;;5043644;28;20044;-84
2022/05/24 05:15:20;;;;;;;10.70;6.18;;;13.80;99.90;;;;;;5046848;28;20039;-81
2022/05/24 05:17:46;;;;;;;13.80;6.82;;;13.80;99.90;;;;;;5029319;28;20028;-83
2022/05/24 05:20:13;;;;;;;10.77;6.25;;;13.80;99.90;;;;;;5049869;28;20503;-79
2022/05/24 05:22:41;;;;;;;13.68;6.07;;;13.80;99.90;;;;;;5050322;28;20051;-84
2022/05/24 05:25:12;;;;;;;14.20;6.93;;;13.70;99.90;;;;;;5036520;28;20036;-83
2022/05/24 05:27:54;;;;;;;10.27;6.18;;;13.70;99.90;;;;;;5063653;28;20037;-82
2022/05/24 05:33:33;;;;;;;13.63;6.97;;;13.60;99.90;;;;;;5068404;28;20040;-83
2022/05/24 05:36:10;;;;;;;9.32;8.15;;;13.70;99.90;;;;;;4992643;28;20030;-82
2022/05/24 05:38:45;;;;;;;11.85;9.13;;;13.70;99.90;;;;;;5019362;28;20037;-82
2022/05/24 05:41:29;;;;;;;12.70;9.10;;;13.70;99.90;;;;;;5006943;28;20453;-82
2022/05/24 05:43:57;;;;;;;15.57;8.68;;;13.70;99.90;;;;;;5020301;28;20091;-82
2022/05/24 05:46:38;;;;;;;8.40;6.13;;;13.70;99.90;;;;;;5000686;28;20049;-82
2022/05/24 05:49:18;;;;;;;14.63;8.27;;;13.70;99.90;;;;;;5019151;28;20038;-82
2022/05/24 05:51:50;;;;;;;12.85;7.30;;;13.70;99.90;;;;;;5006704;28;20046;-82
2022/05/24 05:54:29;;;;;;;9.43;6.38;;;13.70;99.90;;;;;;5019408;28;20037;-82
2022/05/24 05:56:56;;;;;;;13.80;7.40;;;13.80;99.90;;;;;;4999821;28;20042;-81
2022/05/24 05:59:31;;;;;;;12.82;7.80;;;13.80;99.90;;;;;;4991286;28;20053;-82
2022/05/24 06:02:00;;;;;;;15.27;8.70;;;13.90;99.90;;;;;;4986547;28;20048;-81
2022/05/24 06:04:26;;;;;;;14.55;9.20;;;13.90;99.90;;;;;;5013996;28;20052;-81
2022/05/24 06:07:11;;;;;;;11.60;8.52;;;13.90;99.90;;;;;;5025369;28;20048;-82
2022/05/24 06:09:41;;;;;;;14.10;8.00;;;13.90;99.90;;;;;;5065616;28;20036;-81
2022/05/24 06:12:08;;;;;;;10.85;8.85;;;14.00;99.90;;;;;;5015574;28;20024;-82
2022/05/24 06:14:42;;;;;;;11.70;7.85;;;13.90;99.90;;;;;;5065898;28;20352;-81
2022/05/24 06:17:10;;;;;;;11.98;8.57;;;13.90;99.90;;;;;;5047997;28;20032;-81
2022/05/24 06:19:37;;;;;;;11.40;8.75;;;14.00;99.90;;;;;;5047272;28;20051;-81
2022/05/24 06:22:13;;;;;;;8.68;7.75;;;14.00;99.90;;;;;;5051200;28;20051;-81
2022/05/24 06:24:46;;;;;;;11.57;8.07;;;14.10;99.90;;;;;;5032635;28;21256;-81
2022/05/24 06:27:22;;;;;;;13.98;8.00;;;14.10;99.90;;;;;;5044982;28;20029;-81
2022/05/24 06:29:50;;;;;;;10.13;7.47;;;14.20;99.90;;;;;;5047732;28;20221;-81
2022/05/24 06:32:18;;;;;;;10.13;7.95;;;14.20;99.90;;;;;;5057693;28;20032;-81
2022/05/24 06:34:53;;;;;;;10.85;9.65;;;14.20;99.90;;;;;;5064966;28;20024;-81
2022/05/24 06:37:27;;;;;;;12.27;8.27;;;14.20;99.90;;;;;;5034257;28;20035;-81
2022/05/24 06:39:59;;;;;;;15.38;8.73;;;14.20;99.90;;;;;;5060047;28;20036;-81
2022/05/24 06:42:38;;;;;;;12.88;7.95;;;14.20;99.90;;;;;;5072331;28;20032;-80
2022/05/24 06:45:11;;;;;;;12.73;7.97;;;14.20;99.90;;;;;;5079707;28;20395;-80
2022/05/24 06:47:51;;;;;;;12.57;7.53;;;14.20;99.90;;;;;;5046499;28;20032;-81
2022/05/24 06:50:21;;;;;;;14.23;7.82;;;14.20;99.90;;;;;;5065952;28;20040;-80
2022/05/24 06:53:23;;;;;;;11.40;7.50;;;14.20;99.90;;;;;;5061034;28;20040;-80
2022/05/24 06:55:59;;;;;;;7.68;5.47;;;14.20;99.90;;;;;;4982777;28;20036;-83
2022/05/24 06:58:27;;;;;;;15.52;6.90;;;14.30;99.90;;;;;;5031384;28;20154;-84
2022/05/24 07:04:11;;;;;;;13.93;9.57;;;14.30;99.90;;;;;;5077676;28;20102;-82
2022/05/24 07:06:48;;;;;;;11.25;6.93;;;14.20;99.90;;;;;;5037093;28;20278;-82
2022/05/24 07:09:31;;;;;;;10.52;7.15;;;14.20;99.90;;;;;;5065067;28;20052;-83
2022/05/24 07:12:04;;;;;;;8.73;6.90;;;14.30;99.90;;;;;;5048110;28;20052;-83
2022/05/24 07:14:40;;;;;;;7.88;5.95;;;14.30;99.90;;;;;;5035865;28;20078;-83
2022/05/24 07:17:08;;;;;;;12.15;7.70;;;14.40;99.90;;;;;;5060997;28;20029;-82
2022/05/24 07:19:41;;;;;;;8.65;6.65;;;14.60;99.90;;;;;;5037828;28;20468;-83
2022/05/24 07:22:11;;;;;;;10.95;8.70;;;14.70;99.90;;;;;;5045877;28;20387;-84
2022/05/24 07:24:48;;;;;;;9.48;6.97;;;14.90;99.90;;;;;;5016983;28;20037;-84
2022/05/24 07:27:33;;;;;;;8.77;6.50;;;15.10;99.90;;;;;;5047766;28;20025;-89
2022/05/24 07:30:01;;;;;;;12.35;8.85;;;15.40;99.90;;;;;;5032203;28;20071;-89
2022/05/24 07:32:45;;;;;;;7.82;7.03;;;15.50;99.90;;;;;;5048622;28;20396;-89
2022/05/24 07:35:59;;;;;;;15.35;8.70;;;15.50;99.90;;;;;;5015122;28;20503;-89
2022/05/24 07:38:46;;;;;;;8.48;7.47;;;15.60;99.90;;;;;;5028254;28;20488;-89
2022/05/24 07:48:11;;;;;;;7.53;6.57;;;15.90;99.90;;;;;;5047018;28;20487;-89
2022/05/24 07:50:39;;;;;;;10.73;6.35;;;16.00;99.90;;;;;;5017024;28;20055;-89
2022/05/24 07:53:37;;;;;;;6.40;5.30;;;16.10;99.90;;;;;;5019566;28;20051;-90
2022/05/24 07:56:20;;;;;;;8.63;4.80;;;16.20;99.90;;;;;;5032613;28;20025;-89
2022/05/24 07:59:04;;;;;;;6.22;4.90;;;16.20;99.90;;;;;;5040184;28;20348;-88
2022/05/24 08:01:31;;;;;;;4.97;4.15;;;16.30;99.90;;;;;;5041967;28;20028;-86
2022/05/24 08:04:00;;;;;;;6.20;3.05;;;16.30;99.90;;;;;;5028673;28;20031;-86
2022/05/24 08:06:32;;;;;;;4.80;3.20;;;16.30;99.90;;;;;;5051073;28;20037;-85
2022/05/24 08:08:59;;;;;;;4.63;2.33;;;16.40;99.90;;;;;;5001139;28;20048;-86
2022/05/24 08:11:29;;;;;;;6.05;2.38;;;16.50;99.90;;;;;;5026731;28;20041;-85
2022/05/24 08:14:08;;;;;;;;;;;;;;;;;;;;;
2022/05/24 08:16:50;;;;;;;;;;;;;;;;;;;;;
2022/05/24 08:19:44;;;;;;;5.53;2.45;;;17.10;99.90;;;;;;5027212;28;20112;-83
2022/05/24 08:22:13;;;;;;;4.70;2.22;;;17.00;99.90;;;;;;5036090;28;20021;-85
2022/05/24 08:24:42;;;;;;;4.68;3.08;;;17.20;99.90;;;;;;5031327;28;20046;-87
2022/05/24 08:27:18;;;;;;;3.55;1.75;;;17.20;99.90;;;;;;5030619;28;20033;-85
2022/05/24 08:29:45;;;;;;;4.53;2.05;;;17.10;99.90;;;;;;5062821;28;20017;-86
2022/05/24 08:32:12;;;;;;;5.63;2.63;;;17.00;99.90;;;;;;5019561;28;20029;-86
2022/05/24 08:34:40;;;;;;;7.47;2.10;;;16.90;99.90;;;;;;5015887;28;20053;-86
2022/05/24 08:37:06;;;;;;;4.07;1.77;;;17.20;99.90;;;;;;5042022;28;20484;-86
2022/05/24 08:39:33;;;;;;;3.35;1.48;;;17.50;99.90;;;;;;5040604;28;20044;-85
2022/05/24 08:43:05;;;;;;;2.38;0.80;;;17.80;99.90;;;;;;5019169;28;20044;-84
2022/05/24 08:48:36;;;;;;;6.15;0.90;;;18.30;99.90;;;;;;4966979;28;19917;-85
2022/05/24 08:51:11;;;;;;;6.18;0.85;;;18.60;99.90;;;;;;5015135;28;20783;-85
2022/05/24 08:53:45;;;;;;;3.72;1.23;;;18.60;99.90;;;;;;5034775;28;20400;-86
2022/05/24 08:56:44;;;;;;;5.03;1.10;;;18.50;99.90;;;;;;5048036;28;20403;-80
2022/05/24 08:59:30;;;;;;;2.70;1.23;;;18.20;99.90;;;;;;5041128;28;20036;-79
2022/05/24 09:02:05;;;;;;;2.50;0.95;;;17.80;99.90;;;;;;5044851;28;20394;-79
2022/05/24 09:04:45;;;;;;;2.83;0.95;;;17.50;99.90;;;;;;5043864;28;20044;-82
2022/05/24 09:08:08;;;;;;;2.00;0.82;;;17.10;99.90;;;;;;5044858;28;20045;-85
2022/05/24 09:11:18;;;;;;;2.63;0.82;;;16.90;99.90;;;;;;5029394;28;20024;-85
2022/05/24 09:14:17;;;;;;;5.55;1.10;;;16.60;99.90;;;;;;5033936;28;20504;-85
2022/05/24 09:17:18;;;;;;;2.92;0.95;;;16.50;99.90;;;;;;5000984;28;20032;-85
2022/05/24 09:19:45;;;;;;;3.75;0.85;;;16.50;99.90;;;;;;5048798;28;21115;-84
2022/05/24 09:22:12;;;;;;;4.82;1.13;;;16.80;99.90;;;;;;5034069;28;20504;-85
2022/05/24 09:25:00;;;;;;;3.35;1.00;;;17.00;99.90;;;;;;5036211;28;20501;-85
2022/05/24 09:27:55;;;;;;;3.13;0.70;;;17.30;99.90;;;;;;5061013;28;20040;-86
2022/05/24 09:30:47;;;;;;;4.15;0.55;;;17.50;99.90;;;;;;5034808;28;20039;-85
2022/05/24 09:33:32;;;;;;;5.70;0.70;;;17.70;99.90;;;;;;5054077;28;20045;-86
2022/05/24 09:36:07;;;;;;;2.85;0.60;;;18.00;99.90;;;;;;5039198;28;20047;-85
2022/05/24 09:38:38;;;;;;;2.03;0.60;;;18.30;99.90;;;;;;5048505;28;20016;-86
2022/05/24 09:41:18;;;;;;;3.88;1.13;;;18.50;99.90;;;;;;5044206;28;20373;-85
2022/05/24 09:44:33;;;;;;;3.30;0.80;;;18.60;99.90;;;;;;5060651;28;20112;-86
2022/05/24 09:47:19;;;;;;;4.85;1.10;;;18.70;99.90;;;;;;5022386;28;20488;-86
2022/05/24 09:49:50;;;;;;;2.65;0.95;;;18.70;99.90;;;;;;5045841;28;20044;-88
2022/05/24 09:52:19;;;;;;;5.93;1.30;;;18.60;99.90;;;;;;5026590;28;20048;-88
2022/05/24 09:55:06;;;;;;;3.13;0.93;;;18.40;99.90;;;;;;5030804;28;20041;-89
2022/05/24 09:57:42;;;;;;;2.42;1.00;;;18.30;99.90;;;;;;5013149;28;20476;-86
2022/05/24 10:00:23;;;;;;;2.92;1.00;;;18.20;99.90;;;;;;5035440;28;20029;-88
2022/05/24 10:03:11;;;;;;;3.22;0.82;;;18.20;99.90;;;;;;5062154;28;20029;-88
2022/05/24 10:05:39;;;;;;;1.88;0.75;;;18.30;99.90;;;;;;5017182;28;20025;-88
2022/05/24 10:08:33;;;;;;;2.97;0.60;;;18.60;99.90;;;;;;5042132;28;20033;-88
2022/05/24 10:11:03;;;;;;;2.42;0.70;;;19.00;99.90;;;;;;5047821;28;20044;-88
2022/05/24 10:13:58;;;;;;;1.42;0.60;;;19.30;99.90;;;;;;5029012;28;20045;-88
2022/05/24 10:17:12;;;;;;;4.55;0.50;;;19.50;99.90;;;;;;5057069;28;20040;-88
2022/05/24 10:20:37;;;;;;;3.53;0.50;;;19.40;99.90;;;;;;5052242;28;20068;-87
2022/05/24 10:24:12;;;;;;;1.50;0.43;;;19.70;99.90;;;;;;5000735;28;20044;-88
2022/05/24 10:27:03;;;;;;;0.95;0.30;;;20.00;99.90;;;;;;4988554;28;20158;-88
2022/05/24 10:29:53;;;;;;;2.15;0.40;;;19.80;99.90;;;;;;4986116;28;20035;-87
2022/05/24 10:39:49;;;;;;;1.80;0.50;;;17.90;99.90;;;;;;5040010;28;20033;-86
2022/05/24 10:42:33;;;;;;;1.63;0.52;;;17.60;99.90;;;;;;5047684;28;20040;-86
2022/05/24 10:45:23;;;;;;;1.98;0.50;;;17.70;99.90;;;;;;5035042;28;20033;-87
2022/05/24 10:48:08;;;;;;;1.48;0.50;;;18.30;99.90;;;;;;5056958;28;20021;-87
2022/05/24 10:51:18;;;;;;;2.47;0.60;;;18.90;99.90;;;;;;5020312;28;20472;-87
2022/05/24 10:54:19;;;;;;;1.98;0.70;;;19.20;99.90;;;;;;4994661;28;20048;-86
2022/05/24 10:57:14;;;;;;;3.83;0.60;;;19.00;99.90;;;;;;4998993;28;20037;-83
2022/05/24 11:00:03;;;;;;;2.03;0.60;;;18.30;99.90;;;;;;4985613;28;20025;-85
2022/05/24 11:02:53;;;;;;;1.75;0.40;;;17.80;99.90;;;;;;4975769;28;20029;-84
2022/05/24 11:05:43;;;;;;;1.50;0.43;;;18.10;99.90;;;;;;4988068;28;20052;-85
2022/05/24 11:08:21;;;;;;;0.80;0.40;;;18.60;99.90;;;;;;4996375;28;20029;-84
2022/05/24 11:10:51;;;;;;;1.15;0.40;;;18.70;99.90;;;;;;4984579;28;20042;-83
2022/05/24 11:13:57;;;;;;;2.03;0.43;;;18.80;99.90;;;;;;5017102;28;20048;-83
2022/05/24 11:16:43;;;;;;;1.35;0.45;;;19.40;99.90;;;;;;4961762;28;20038;-84
2022/05/24 11:19:26;;;;;;;1.48;0.40;;;19.30;99.90;;;;;;4963343;28;20050;-86
2022/05/24 11:22:36;;;;;;;2.22;0.30;;;19.00;99.90;;;;;;4964589;28;20045;-88
2022/05/24 11:25:58;;;;;;;1.23;0.30;;;18.50;99.90;;;;;;4931252;28;20091;-87
2022/05/24 11:28:56;;;;;;;0.55;0.30;;;18.10;99.90;;;;;;4961851;28;20056;-86
2022/05/24 11:31:42;;;;;;;1.58;0.40;;;17.70;99.90;;;;;;5007103;28;20037;-87
2022/05/24 11:34:32;;;;;;;0.47;0.22;;;17.30;99.90;;;;;;5001339;28;20043;-86
2022/05/24 11:37:41;;;;;;;0.60;0.20;;;16.90;99.90;;;;;;5019292;28;20044;-86
2022/05/24 11:40:36;;;;;;;0.75;0.22;;;16.70;99.90;;;;;;4994529;28;20977;-85
2022/05/24 11:43:57;;;;;;;1.95;0.30;;;16.50;99.90;;;;;;5006571;28;20056;-86
2022/05/24 11:47:37;;;;;;;1.75;0.30;;;16.60;99.90;;;;;;5004153;28;20029;-86
2022/05/24 11:51:17;;;;;;;;;;;;;;;;;;;;;
2022/05/24 11:53:53;;;;;;;1.80;0.45;;;17.20;99.90;;;;;;4986281;28;20509;-89
2022/05/24 11:57:33;;;;;;;1.05;0.20;;;18.10;99.90;;;;;;4998342;28;20045;-91
2022/05/24 12:00:06;;;;;;;1.85;0.32;;;18.30;99.90;;;;;;5040283;28;20091;-88
2022/05/24 12:08:39;;;;;;;0.77;0.35;;;17.60;99.90;;;;;;5027822;28;20079;-89
2022/05/24 12:15:46;;;;;;;;;;;;;;;;;;;;;
2022/05/24 12:31:28;;;;;;;0.75;0.30;;;25.10;95.10;;;;;;4918270;28;19914;-91
2022/05/24 12:39:48;;;;;;;0.88;0.30;;;23.50;92.00;;;;;;4856581;29;20042;-90
2022/05/24 12:42:50;;;;;;;0.82;0.30;;;21.80;93.00;;;;;;4936681;28;20044;-88
2022/05/24 12:46:05;;;;;;;1.38;0.45;;;20.80;94.50;;;;;;4989982;28;20049;-85
2022/05/24 12:49:18;;;;;;;2.58;0.30;;;20.00;96.80;;;;;;4986628;28;20041;-88
2022/05/24 12:51:47;;;;;;;2.75;0.40;;;20.30;99.50;;;;;;5013624;28;20041;-83
2022/05/24 12:54:33;;;;;;;2.95;0.30;;;21.50;99.90;;;;;;5011974;28;20540;-88
2022/05/24 12:57:47;;;;;;;2.47;0.50;;;22.80;99.80;;;;;;5017499;28;20033;-88
2022/05/24 13:00:48;;;;;;;1.25;0.50;;;24.40;98.00;;;;;;5013522;28;20048;-89
2022/05/24 13:03:31;;;;;;;1.27;0.50;;;25.80;93.30;;;;;;4998044;28;20049;-89
2022/05/24 13:15:57;;;;;;;;;;;;;;;;;;;;;
2022/05/24 13:19:24;;;;;;;;;;;;;;;;;;;;;
2022/05/24 13:22:18;;;;;;;1.77;0.30;;;28.70;66.90;;;;;;5045867;28;20040;-92
2022/05/24 13:25:42;;;;;;;2.55;0.40;;;27.80;64.70;;;;;;5017719;28;20032;-90
2022/05/24 13:28:38;;;;;;;1.17;0.30;;;26.50;65.80;;;;;;5048762;28;20035;-92
2022/05/24 13:34:39;;;;;;;0.95;0.38;;;25.10;68.90;;;;;;5036396;28;20548;-88
2022/05/24 13:37:14;;;;;;;1.35;0.30;;;24.60;69.90;;;;;;5033043;28;20059;-89
2022/05/24 13:39:44;;;;;;;0.70;0.30;;;24.20;71.00;;;;;;5049028;28;20059;-90
2022/05/24 13:42:30;;;;;;;0.85;0.30;;;23.60;72.00;;;;;;5035204;28;20021;-89
2022/05/24 13:45:24;;;;;;;0.77;0.25;;;23.00;73.40;;;;;;5038490;28;20045;-89
2022/05/24 13:48:47;;;;;;;0.90;0.30;;;22.30;74.10;;;;;;5055330;28;20147;-90
2022/05/24 13:51:47;;;;;;;1.17;0.32;;;21.60;75.70;;;;;;5001286;28;20165;-91
2022/05/24 13:54:39;;;;;;;1.05;0.35;;;21.10;77.40;;;;;;4999257;28;20057;-89
2022/05/24 13:57:28;;;;;;;2.70;0.40;;;20.70;79.10;;;;;;5011680;28;20802;-86
2022/05/24 13:59:59;;;;;;;2.40;0.50;;;20.30;81.60;;;;;;4986608;28;20041;-87
2022/05/24 14:02:37;;;;;;;1.55;0.50;;;19.70;86.90;;;;;;5018564;28;20042;-87
2022/05/24 14:05:09;;;;;;;2.60;0.60;;;19.20;90.60;;;;;;5002568;28;20052;-88
2022/05/24 14:07:39;;;;;;;1.75;0.40;;;19.00;92.10;;;;;;4973481;28;20446;-85
2022/05/24 14:10:21;;;;;;;3.25;0.40;;;18.90;93.70;;;;;;4987235;28;20045;-88
2022/05/24 14:13:09;;;;;;;2.78;0.50;;;18.90;94.90;;;;;;4977220;28;20045;-87
2022/05/24 14:15:47;;;;;;;1.27;0.40;;;19.20;96.00;;;;;;5007344;28;20045;-88
2022/05/24 14:18:21;;;;;;;1.85;0.50;;;19.50;96.40;;;;;;5009462;28;20054;-87
2022/05/24 14:20:56;;;;;;;1.55;0.38;;;19.60;96.60;;;;;;4992232;28;20549;-88
2022/05/24 14:23:40;;;;;;;2.20;0.50;;;20.50;96.20;;;;;;4956446;28;20387;-87
2022/05/24 14:26:07;;;;;;;1.50;0.40;;;21.30;95.10;;;;;;4946626;28;20312;-88
2022/05/24 14:28:45;;;;;;;2.45;0.65;;;22.60;93.60;;;;;;4979740;28;20039;-88
2022/05/24 14:31:42;;;;;;;1.73;0.50;;;23.10;92.30;;;;;;4968709;28;20057;-91
2022/05/24 14:34:45;;;;;;;2.67;0.60;;;24.60;91.00;;;;;;4967109;28;20050;-86
2022/05/24 14:37:16;;;;;;;2.15;0.55;;;25.20;88.70;;;;;;4930750;28;20043;-89
2022/05/24 14:40:38;;;;;;;;;;;;;;;;;;;;;
2022/05/24 14:44:35;;;;;;;3.63;2.03;;;27.90;79.40;;;;;;4962415;28;20447;-91
2022/05/24 14:47:18;;;;;;;4.30;3.65;;;27.10;76.30;;;;;;4919333;28;22526;-89
2022/05/24 14:49:55;;;;;;;2.03;0.90;;;25.80;77.10;;;;;;4962442;28;20039;-89
2022/05/24 14:52:46;;;;;;;1.42;0.70;;;24.60;78.60;;;;;;4948550;28;20406;-90
2022/05/24 14:55:31;;;;;;;1.08;0.55;;;23.50;80.20;;;;;;4970497;28;20046;-88
2022/05/24 14:58:02;;;;;;;0.93;0.55;;;22.70;81.40;;;;;;4966755;28;20043;-89
2022/05/24 15:00:50;;;;;;;1.52;0.40;;;22.10;82.80;;;;;;5004877;28;20041;-88
2022/05/24 15:04:03;;;;;;;1.15;0.40;;;21.70;83.90;;;;;;5004932;28;20042;-88
2022/05/24 15:15:20;;;;;;;0.95;0.50;;;21.40;84.60;;;;;;5002390;28;20046;-86
2022/05/24 15:15:45;;;;;;;1.27;0.43;;;20.50;86.80;;;;;;5006821;28;20062;-84
2022/05/24 15:18:25;;;;;;;2.50;1.52;;;20.40;91.60;;;;;;4999394;28;20092;-83
2022/05/24 15:20:57;;;;;;;2.10;0.60;;;21.80;92.50;;;;;;4987184;28;20066;-84